sensor_id;sensor_type;location;lat;lon;timestamp;P1;durP1;ratioP1;P2;durP2;ratioP2
8704;SDS011;4389;41.932;25.904;2023-01-04T00:00:31;25.53;;;15.77;;
8704;SDS011;4389;41.932;25.904;2023-01-04T00:02:58;29.37;;;15.90;;
8704;SDS011;4389;41.932;25.904;2023-01-04T00:05:26;18.93;;;13.70;;
8704;SDS011;4389;41.932;25.904;2023-01-04T00:07:53;21.83;;;15.60;;
8704;SDS011;4389;41.932;25.904;2023-01-04T00:10:20;24.23;;;15.03;;
8704;SDS011;4389;41.932;25.904;2023-01-04T00:12:47;22.77;;;14.77;;
8704;SDS011;4389;41.932;25.904;2023-01-04T00:15:14;16.63;;;13.80;;
8704;SDS011;4389;41.932;25.904;2023-01-04T00:17:40;18.90;;;14.13;;
8704;SDS011;4389;41.932;25.904;2023-01-04T00:20:08;16.13;;;12.67;;
8704;SDS011;4389;41.932;25.904;2023-01-04T00:22:37;16.90;;;12.70;;
8704;SDS011;4389;41.932;25.904;2023-01-04T00:25:04;20.53;;;15.17;;
8704;SDS011;4389;41.932;25.904;2023-01-04T00:27:31;19.17;;;16.50;;
8704;SDS011;4389;41.932;25.904;2023-01-04T00:29:58;22.97;;;18.33;;
8704;SDS011;4389;41.932;25.904;2023-01-04T00:32:25;19.17;;;16.57;;
8704;SDS011;4389;41.932;25.904;2023-01-04T00:34:51;23.10;;;17.50;;
8704;SDS011;4389;41.932;25.904;2023-01-04T00:37:18;23.80;;;17.57;;
8704;SDS011;4389;41.932;25.904;2023-01-04T00:39:46;22.03;;;16.63;;
8704;SDS011;4389;41.932;25.904;2023-01-04T00:42:13;28.07;;;17.83;;
8704;SDS011;4389;41.932;25.904;2023-01-04T00:44:40;26.93;;;16.30;;
8704;SDS011;4389;41.932;25.904;2023-01-04T00:47:07;25.93;;;16.17;;
8704;SDS011;4389;41.932;25.904;2023-01-04T00:49:33;50.70;;;17.47;;
8704;SDS011;4389;41.932;25.904;2023-01-04T00:52:00;26.40;;;19.70;;
8704;SDS011;4389;41.932;25.904;2023-01-04T00:54:27;26.50;;;19.87;;
8704;SDS011;4389;41.932;25.904;2023-01-04T00:56:56;39.90;;;17.40;;
8704;SDS011;4389;41.932;25.904;2023-01-04T00:59:23;22.97;;;15.50;;
8704;SDS011;4389;41.932;25.904;2023-01-04T01:01:50;33.63;;;13.90;;
8704;SDS011;4389;41.932;25.904;2023-01-04T01:04:17;23.50;;;15.13;;
8704;SDS011;4389;41.932;25.904;2023-01-04T01:06:46;33.80;;;12.60;;
8704;SDS011;4389;41.932;25.904;2023-01-04T01:09:13;24.67;;;14.27;;
8704;SDS011;4389;41.932;25.904;2023-01-04T01:11:40;21.60;;;14.23;;
8704;SDS011;4389;41.932;25.904;2023-01-04T01:14:11;17.63;;;13.43;;
8704;SDS011;4389;41.932;25.904;2023-01-04T01:16:41;16.80;;;14.03;;
8704;SDS011;4389;41.932;25.904;2023-01-04T01:19:08;17.97;;;14.33;;
8704;SDS011;4389;41.932;25.904;2023-01-04T01:21:35;16.80;;;13.13;;
8704;SDS011;4389;41.932;25.904;2023-01-04T01:24:02;22.83;;;12.83;;
8704;SDS011;4389;41.932;25.904;2023-01-04T01:26:30;38.77;;;13.60;;
8704;SDS011;4389;41.932;25.904;2023-01-04T01:28:57;24.67;;;16.00;;
8704;SDS011;4389;41.932;25.904;2023-01-04T01:31:27;41.43;;;16.40;;
8704;SDS011;4389;41.932;25.904;2023-01-04T01:33:55;32.90;;;17.10;;
8704;SDS011;4389;41.932;25.904;2023-01-04T01:36:22;39.80;;;18.47;;
8704;SDS011;4389;41.932;25.904;2023-01-04T01:38:51;37.10;;;16.73;;
8704;SDS011;4389;41.932;25.904;2023-01-04T01:41:19;25.90;;;14.43;;
8704;SDS011;4389;41.932;25.904;2023-01-04T01:43:49;18.53;;;13.33;;
8704;SDS011;4389;41.932;25.904;2023-01-04T01:46:19;14.30;;;11.13;;
8704;SDS011;4389;41.932;25.904;2023-01-04T01:48:53;13.40;;;11.97;;
8704;SDS011;4389;41.932;25.904;2023-01-04T01:51:24;15.83;;;12.87;;
8704;SDS011;4389;41.932;25.904;2023-01-04T01:53:53;14.60;;;12.10;;
8704;SDS011;4389;41.932;25.904;2023-01-04T01:56:24;16.07;;;13.20;;
8704;SDS011;4389;41.932;25.904;2023-01-04T01:58:53;16.03;;;14.20;;
8704;SDS011;4389;41.932;25.904;2023-01-04T02:01:23;19.33;;;15.67;;
8704;SDS011;4389;41.932;25.904;2023-01-04T02:03:52;26.07;;;18.87;;
8704;SDS011;4389;41.932;25.904;2023-01-04T02:06:20;32.03;;;21.93;;
8704;SDS011;4389;41.932;25.904;2023-01-04T02:08:51;33.53;;;20.80;;
8704;SDS011;4389;41.932;25.904;2023-01-04T02:11:18;45.23;;;16.97;;
8704;SDS011;4389;41.932;25.904;2023-01-04T02:13:45;42.03;;;17.10;;
8704;SDS011;4389;41.932;25.904;2023-01-04T02:16:33;19.33;;;12.57;;
8704;SDS011;4389;41.932;25.904;2023-01-04T02:19:18;30.00;;;10.47;;
8704;SDS011;4389;41.932;25.904;2023-01-04T02:22:15;34.67;;;11.43;;
8704;SDS011;4389;41.932;25.904;2023-01-04T02:25:20;22.30;;;10.50;;
8704;SDS011;4389;41.932;25.904;2023-01-04T02:28:09;34.30;;;12.87;;
8704;SDS011;4389;41.932;25.904;2023-01-04T02:30:59;58.00;;;14.73;;
8704;SDS011;4389;41.932;25.904;2023-01-04T02:33:46;25.87;;;12.40;;
8704;SDS011;4389;41.932;25.904;2023-01-04T02:36:19;32.77;;;14.27;;
8704;SDS011;4389;41.932;25.904;2023-01-04T02:38:58;50.10;;;14.93;;
8704;SDS011;4389;41.932;25.904;2023-01-04T02:41:36;70.70;;;16.57;;
8704;SDS011;4389;41.932;25.904;2023-01-04T02:44:10;36.10;;;16.13;;
8704;SDS011;4389;41.932;25.904;2023-01-04T02:46:59;25.60;;;13.97;;
8704;SDS011;4389;41.932;25.904;2023-01-04T02:49:29;24.30;;;12.43;;
8704;SDS011;4389;41.932;25.904;2023-01-04T02:52:14;35.27;;;10.90;;
8704;SDS011;4389;41.932;25.904;2023-01-04T02:54:41;18.80;;;10.80;;
8704;SDS011;4389;41.932;25.904;2023-01-04T02:57:18;11.90;;;9.33;;
8704;SDS011;4389;41.932;25.904;2023-01-04T03:03:04;22.47;;;10.07;;
8704;SDS011;4389;41.932;25.904;2023-01-04T03:06:01;38.57;;;13.23;;
8704;SDS011;4389;41.932;25.904;2023-01-04T03:08:42;36.50;;;11.90;;
8704;SDS011;4389;41.932;25.904;2023-01-04T03:11:33;32.50;;;11.57;;
8704;SDS011;4389;41.932;25.904;2023-01-04T03:14:23;70.63;;;13.63;;
8704;SDS011;4389;41.932;25.904;2023-01-04T03:16:53;39.47;;;13.87;;
8704;SDS011;4389;41.932;25.904;2023-01-04T03:19:23;63.13;;;14.77;;
8704;SDS011;4389;41.932;25.904;2023-01-04T03:22:06;59.97;;;13.53;;
8704;SDS011;4389;41.932;25.904;2023-01-04T03:24:56;52.27;;;13.67;;
8704;SDS011;4389;41.932;25.904;2023-01-04T03:27:43;55.67;;;13.93;;
8704;SDS011;4389;41.932;25.904;2023-01-04T03:30:29;43.00;;;13.60;;
8704;SDS011;4389;41.932;25.904;2023-01-04T03:33:17;72.93;;;15.20;;
8704;SDS011;4389;41.932;25.904;2023-01-04T03:36:05;85.87;;;15.77;;
8704;SDS011;4389;41.932;25.904;2023-01-04T03:38:45;66.97;;;18.83;;
8704;SDS011;4389;41.932;25.904;2023-01-04T03:41:36;78.80;;;21.60;;
8704;SDS011;4389;41.932;25.904;2023-01-04T03:44:28;102.00;;;27.87;;
8704;SDS011;4389;41.932;25.904;2023-01-04T03:47:18;136.10;;;29.80;;
8704;SDS011;4389;41.932;25.904;2023-01-04T03:50:09;142.33;;;23.10;;
8704;SDS011;4389;41.932;25.904;2023-01-04T03:52:41;46.60;;;18.77;;
8704;SDS011;4389;41.932;25.904;2023-01-04T03:55:11;75.00;;;21.00;;
8704;SDS011;4389;41.932;25.904;2023-01-04T03:57:40;49.57;;;19.93;;
8704;SDS011;4389;41.932;25.904;2023-01-04T04:00:09;32.83;;;22.53;;
8704;SDS011;4389;41.932;25.904;2023-01-04T04:02:38;35.73;;;24.97;;
8704;SDS011;4389;41.932;25.904;2023-01-04T04:05:06;52.80;;;21.67;;
8704;SDS011;4389;41.932;25.904;2023-01-04T04:07:52;43.90;;;21.40;;
8704;SDS011;4389;41.932;25.904;2023-01-04T04:10:37;34.57;;;21.30;;
8704;SDS011;4389;41.932;25.904;2023-01-04T04:13:04;24.63;;;18.10;;
8704;SDS011;4389;41.932;25.904;2023-01-04T04:15:31;25.93;;;15.47;;
8704;SDS011;4389;41.932;25.904;2023-01-04T04:17:58;23.47;;;13.37;;
8704;SDS011;4389;41.932;25.904;2023-01-04T04:20:24;38.60;;;19.07;;
8704;SDS011;4389;41.932;25.904;2023-01-04T04:22:53;25.63;;;20.43;;
8704;SDS011;4389;41.932;25.904;2023-01-04T04:25:20;42.07;;;25.77;;
8704;SDS011;4389;41.932;25.904;2023-01-04T04:27:46;46.60;;;29.50;;
8704;SDS011;4389;41.932;25.904;2023-01-04T04:30:13;44.47;;;29.70;;
8704;SDS011;4389;41.932;25.904;2023-01-04T04:32:41;32.70;;;13.87;;
8704;SDS011;4389;41.932;25.904;2023-01-04T04:35:08;40.00;;;13.13;;
8704;SDS011;4389;41.932;25.904;2023-01-04T04:37:35;24.63;;;13.77;;
8704;SDS011;4389;41.932;25.904;2023-01-04T04:40:04;18.20;;;13.27;;
8704;SDS011;4389;41.932;25.904;2023-01-04T04:42:31;24.30;;;12.77;;
8704;SDS011;4389;41.932;25.904;2023-01-04T04:44:57;32.67;;;13.03;;
8704;SDS011;4389;41.932;25.904;2023-01-04T04:47:24;34.10;;;13.27;;
8704;SDS011;4389;41.932;25.904;2023-01-04T04:49:51;34.47;;;15.13;;
8704;SDS011;4389;41.932;25.904;2023-01-04T04:52:17;20.03;;;10.93;;
8704;SDS011;4389;41.932;25.904;2023-01-04T04:54:44;23.43;;;11.43;;
8704;SDS011;4389;41.932;25.904;2023-01-04T04:57:12;23.03;;;9.07;;
8704;SDS011;4389;41.932;25.904;2023-01-04T04:59:39;17.73;;;9.53;;
8704;SDS011;4389;41.932;25.904;2023-01-04T05:02:06;28.97;;;9.97;;
8704;SDS011;4389;41.932;25.904;2023-01-04T05:04:33;20.33;;;9.30;;
8704;SDS011;4389;41.932;25.904;2023-01-04T05:06:59;14.77;;;9.37;;
8704;SDS011;4389;41.932;25.904;2023-01-04T05:09:26;33.77;;;10.13;;
8704;SDS011;4389;41.932;25.904;2023-01-04T05:11:53;15.53;;;9.87;;
8704;SDS011;4389;41.932;25.904;2023-01-04T05:14:50;15.73;;;9.70;;
8704;SDS011;4389;41.932;25.904;2023-01-04T05:17:17;18.60;;;10.53;;
8704;SDS011;4389;41.932;25.904;2023-01-04T05:19:43;17.83;;;11.10;;
8704;SDS011;4389;41.932;25.904;2023-01-04T05:22:10;17.93;;;10.00;;
8704;SDS011;4389;41.932;25.904;2023-01-04T05:24:37;45.37;;;12.03;;
8704;SDS011;4389;41.932;25.904;2023-01-04T05:27:04;49.83;;;15.73;;
8704;SDS011;4389;41.932;25.904;2023-01-04T05:29:30;53.10;;;13.00;;
8704;SDS011;4389;41.932;25.904;2023-01-04T05:32:16;33.17;;;11.33;;
8704;SDS011;4389;41.932;25.904;2023-01-04T05:34:43;99.47;;;14.27;;
8704;SDS011;4389;41.932;25.904;2023-01-04T05:37:09;101.57;;;14.20;;
8704;SDS011;4389;41.932;25.904;2023-01-04T05:39:36;79.27;;;15.93;;
8704;SDS011;4389;41.932;25.904;2023-01-04T05:42:03;85.70;;;15.23;;
8704;SDS011;4389;41.932;25.904;2023-01-04T05:44:47;140.07;;;15.57;;
8704;SDS011;4389;41.932;25.904;2023-01-04T05:47:15;57.10;;;13.00;;
8704;SDS011;4389;41.932;25.904;2023-01-04T05:49:42;41.63;;;11.97;;
8704;SDS011;4389;41.932;25.904;2023-01-04T05:52:09;37.57;;;14.97;;
8704;SDS011;4389;41.932;25.904;2023-01-04T05:54:36;71.43;;;14.10;;
8704;SDS011;4389;41.932;25.904;2023-01-04T05:57:03;91.43;;;11.90;;
8704;SDS011;4389;41.932;25.904;2023-01-04T05:59:30;78.30;;;12.73;;
8704;SDS011;4389;41.932;25.904;2023-01-04T06:01:57;63.03;;;13.87;;
8704;SDS011;4389;41.932;25.904;2023-01-04T06:04:25;113.00;;;13.60;;
8704;SDS011;4389;41.932;25.904;2023-01-04T06:06:52;45.63;;;11.43;;
8704;SDS011;4389;41.932;25.904;2023-01-04T06:09:19;21.57;;;10.97;;
8704;SDS011;4389;41.932;25.904;2023-01-04T06:11:46;84.40;;;11.17;;
8704;SDS011;4389;41.932;25.904;2023-01-04T06:14:13;25.70;;;10.60;;
8704;SDS011;4389;41.932;25.904;2023-01-04T06:16:40;64.30;;;10.57;;
8704;SDS011;4389;41.932;25.904;2023-01-04T06:19:06;37.27;;;10.57;;
8704;SDS011;4389;41.932;25.904;2023-01-04T06:21:35;31.10;;;12.40;;
8704;SDS011;4389;41.932;25.904;2023-01-04T06:24:01;57.07;;;11.23;;
8704;SDS011;4389;41.932;25.904;2023-01-04T06:26:28;55.80;;;12.30;;
8704;SDS011;4389;41.932;25.904;2023-01-04T06:28:55;87.60;;;11.63;;
8704;SDS011;4389;41.932;25.904;2023-01-04T06:31:22;58.57;;;11.87;;
8704;SDS011;4389;41.932;25.904;2023-01-04T06:33:49;73.07;;;16.23;;
8704;SDS011;4389;41.932;25.904;2023-01-04T06:36:16;20.83;;;10.10;;
8704;SDS011;4389;41.932;25.904;2023-01-04T06:38:44;70.97;;;11.70;;
8704;SDS011;4389;41.932;25.904;2023-01-04T06:41:10;64.07;;;12.33;;
8704;SDS011;4389;41.932;25.904;2023-01-04T06:43:37;61.57;;;10.50;;
8704;SDS011;4389;41.932;25.904;2023-01-04T06:46:04;50.57;;;9.93;;
8704;SDS011;4389;41.932;25.904;2023-01-04T06:48:31;106.07;;;11.30;;
8704;SDS011;4389;41.932;25.904;2023-01-04T06:50:57;93.77;;;10.50;;
8704;SDS011;4389;41.932;25.904;2023-01-04T06:53:24;60.37;;;10.20;;
8704;SDS011;4389;41.932;25.904;2023-01-04T06:55:53;91.50;;;10.57;;
8704;SDS011;4389;41.932;25.904;2023-01-04T06:58:19;34.53;;;10.23;;
8704;SDS011;4389;41.932;25.904;2023-01-04T07:00:46;45.67;;;10.00;;
8704;SDS011;4389;41.932;25.904;2023-01-04T07:03:13;25.83;;;9.70;;
8704;SDS011;4389;41.932;25.904;2023-01-04T07:05:40;80.37;;;10.40;;
8704;SDS011;4389;41.932;25.904;2023-01-04T07:08:06;39.83;;;11.90;;
8704;SDS011;4389;41.932;25.904;2023-01-04T07:10:33;59.70;;;10.80;;
8704;SDS011;4389;41.932;25.904;2023-01-04T07:13:02;28.87;;;11.50;;
8704;SDS011;4389;41.932;25.904;2023-01-04T07:15:29;47.77;;;13.77;;
8704;SDS011;4389;41.932;25.904;2023-01-04T07:17:56;13.27;;;10.20;;
8704;SDS011;4389;41.932;25.904;2023-01-04T07:20:23;12.40;;;10.73;;
8704;SDS011;4389;41.932;25.904;2023-01-04T07:22:51;32.97;;;9.37;;
8704;SDS011;4389;41.932;25.904;2023-01-04T07:25:18;16.10;;;9.60;;
8704;SDS011;4389;41.932;25.904;2023-01-04T07:27:49;11.57;;;10.20;;
8704;SDS011;4389;41.932;25.904;2023-01-04T07:30:19;17.40;;;10.40;;
8704;SDS011;4389;41.932;25.904;2023-01-04T07:32:46;13.03;;;10.73;;
8704;SDS011;4389;41.932;25.904;2023-01-04T07:35:14;16.00;;;11.47;;
8704;SDS011;4389;41.932;25.904;2023-01-04T07:37:41;13.50;;;10.00;;
8704;SDS011;4389;41.932;25.904;2023-01-04T07:40:09;20.00;;;11.63;;
8704;SDS011;4389;41.932;25.904;2023-01-04T07:42:36;16.90;;;14.00;;
8704;SDS011;4389;41.932;25.904;2023-01-04T07:45:04;17.50;;;13.60;;
8704;SDS011;4389;41.932;25.904;2023-01-04T07:47:33;19.10;;;13.47;;
8704;SDS011;4389;41.932;25.904;2023-01-04T07:50:00;19.33;;;12.10;;
8704;SDS011;4389;41.932;25.904;2023-01-04T07:52:27;36.53;;;11.73;;
8704;SDS011;4389;41.932;25.904;2023-01-04T07:54:54;15.87;;;10.90;;
8704;SDS011;4389;41.932;25.904;2023-01-04T07:57:21;14.63;;;11.70;;
8704;SDS011;4389;41.932;25.904;2023-01-04T07:59:47;12.63;;;8.87;;
8704;SDS011;4389;41.932;25.904;2023-01-04T08:02:14;14.97;;;9.80;;
8704;SDS011;4389;41.932;25.904;2023-01-04T08:04:43;18.33;;;11.97;;
8704;SDS011;4389;41.932;25.904;2023-01-04T08:07:09;10.77;;;8.97;;
8704;SDS011;4389;41.932;25.904;2023-01-04T08:09:36;35.90;;;18.87;;
8704;SDS011;4389;41.932;25.904;2023-01-04T08:12:03;39.97;;;13.97;;
8704;SDS011;4389;41.932;25.904;2023-01-04T08:14:30;15.53;;;11.27;;
8704;SDS011;4389;41.932;25.904;2023-01-04T08:16:57;24.60;;;10.80;;
8704;SDS011;4389;41.932;25.904;2023-01-04T08:19:24;13.10;;;8.73;;
8704;SDS011;4389;41.932;25.904;2023-01-04T08:21:52;29.63;;;11.53;;
8704;SDS011;4389;41.932;25.904;2023-01-04T08:24:19;10.83;;;9.00;;
8704;SDS011;4389;41.932;25.904;2023-01-04T08:26:46;26.87;;;14.23;;
8704;SDS011;4389;41.932;25.904;2023-01-04T08:29:12;19.07;;;14.43;;
8704;SDS011;4389;41.932;25.904;2023-01-04T08:31:39;25.57;;;18.07;;
8704;SDS011;4389;41.932;25.904;2023-01-04T08:34:07;18.33;;;12.90;;
8704;SDS011;4389;41.932;25.904;2023-01-04T08:36:42;17.37;;;12.60;;
8704;SDS011;4389;41.932;25.904;2023-01-04T08:39:12;23.67;;;15.17;;
8704;SDS011;4389;41.932;25.904;2023-01-04T08:41:39;42.20;;;14.23;;
8704;SDS011;4389;41.932;25.904;2023-01-04T08:44:16;22.33;;;13.50;;
8704;SDS011;4389;41.932;25.904;2023-01-04T08:46:43;15.37;;;10.87;;
8704;SDS011;4389;41.932;25.904;2023-01-04T08:49:10;21.37;;;12.30;;
8704;SDS011;4389;41.932;25.904;2023-01-04T08:51:37;19.43;;;12.53;;
8704;SDS011;4389;41.932;25.904;2023-01-04T08:54:04;30.07;;;17.53;;
8704;SDS011;4389;41.932;25.904;2023-01-04T08:56:32;20.63;;;14.57;;
8704;SDS011;4389;41.932;25.904;2023-01-04T08:58:59;20.17;;;14.97;;
8704;SDS011;4389;41.932;25.904;2023-01-04T09:01:26;16.63;;;11.90;;
8704;SDS011;4389;41.932;25.904;2023-01-04T09:03:54;20.00;;;12.97;;
8704;SDS011;4389;41.932;25.904;2023-01-04T09:06:21;21.00;;;13.00;;
8704;SDS011;4389;41.932;25.904;2023-01-04T09:08:48;20.73;;;12.97;;
8704;SDS011;4389;41.932;25.904;2023-01-04T09:11:15;18.07;;;12.97;;
8704;SDS011;4389;41.932;25.904;2023-01-04T09:13:45;26.17;;;14.17;;
8704;SDS011;4389;41.932;25.904;2023-01-04T09:16:12;19.33;;;13.83;;
8704;SDS011;4389;41.932;25.904;2023-01-04T09:18:41;22.67;;;15.47;;
8704;SDS011;4389;41.932;25.904;2023-01-04T09:21:09;24.20;;;15.00;;
8704;SDS011;4389;41.932;25.904;2023-01-04T09:23:38;35.67;;;16.40;;
8704;SDS011;4389;41.932;25.904;2023-01-04T09:26:05;23.67;;;16.57;;
8704;SDS011;4389;41.932;25.904;2023-01-04T09:28:33;17.40;;;15.47;;
8704;SDS011;4389;41.932;25.904;2023-01-04T09:31:04;27.20;;;18.73;;
8704;SDS011;4389;41.932;25.904;2023-01-04T09:33:31;25.47;;;17.70;;
8704;SDS011;4389;41.932;25.904;2023-01-04T09:35:59;38.67;;;18.67;;
8704;SDS011;4389;41.932;25.904;2023-01-04T09:38:27;23.07;;;17.50;;
8704;SDS011;4389;41.932;25.904;2023-01-04T09:40:56;30.00;;;20.83;;
8704;SDS011;4389;41.932;25.904;2023-01-04T09:43:29;27.13;;;18.47;;
8704;SDS011;4389;41.932;25.904;2023-01-04T09:46:06;25.03;;;18.63;;
8704;SDS011;4389;41.932;25.904;2023-01-04T09:48:37;30.37;;;23.60;;
8704;SDS011;4389;41.932;25.904;2023-01-04T09:51:10;54.97;;;28.10;;
8704;SDS011;4389;41.932;25.904;2023-01-04T09:53:41;39.97;;;25.43;;
8704;SDS011;4389;41.932;25.904;2023-01-04T09:56:13;41.13;;;30.17;;
8704;SDS011;4389;41.932;25.904;2023-01-04T09:58:46;29.60;;;23.60;;
8704;SDS011;4389;41.932;25.904;2023-01-04T10:01:16;53.87;;;32.00;;
8704;SDS011;4389;41.932;25.904;2023-01-04T10:03:46;43.83;;;25.97;;
8704;SDS011;4389;41.932;25.904;2023-01-04T10:06:19;51.37;;;26.60;;
8704;SDS011;4389;41.932;25.904;2023-01-04T10:08:46;35.63;;;24.57;;
8704;SDS011;4389;41.932;25.904;2023-01-04T10:11:20;28.93;;;18.97;;
8704;SDS011;4389;41.932;25.904;2023-01-04T10:14:08;42.40;;;20.53;;
8704;SDS011;4389;41.932;25.904;2023-01-04T10:16:51;27.43;;;17.47;;
8704;SDS011;4389;41.932;25.904;2023-01-04T10:19:29;18.80;;;15.73;;
8704;SDS011;4389;41.932;25.904;2023-01-04T10:22:08;19.93;;;15.97;;
8704;SDS011;4389;41.932;25.904;2023-01-04T10:24:45;18.50;;;16.40;;
8704;SDS011;4389;41.932;25.904;2023-01-04T10:27:23;21.07;;;17.40;;
8704;SDS011;4389;41.932;25.904;2023-01-04T10:30:02;21.17;;;16.67;;
8704;SDS011;4389;41.932;25.904;2023-01-04T10:32:44;25.63;;;17.83;;
8704;SDS011;4389;41.932;25.904;2023-01-04T10:35:19;20.43;;;18.00;;
8704;SDS011;4389;41.932;25.904;2023-01-04T10:37:47;24.33;;;17.93;;
8704;SDS011;4389;41.932;25.904;2023-01-04T10:40:16;24.87;;;17.03;;
8704;SDS011;4389;41.932;25.904;2023-01-04T10:42:45;20.90;;;16.40;;
8704;SDS011;4389;41.932;25.904;2023-01-04T10:45:20;18.07;;;16.17;;
8704;SDS011;4389;41.932;25.904;2023-01-04T10:47:58;20.83;;;15.93;;
8704;SDS011;4389;41.932;25.904;2023-01-04T10:50:35;19.77;;;17.03;;
8704;SDS011;4389;41.932;25.904;2023-01-04T10:53:07;24.87;;;17.33;;
8704;SDS011;4389;41.932;25.904;2023-01-04T10:55:39;20.20;;;16.77;;
8704;SDS011;4389;41.932;25.904;2023-01-04T10:58:11;22.13;;;17.43;;
8704;SDS011;4389;41.932;25.904;2023-01-04T11:00:47;21.27;;;18.00;;
8704;SDS011;4389;41.932;25.904;2023-01-04T11:03:19;30.63;;;21.73;;
8704;SDS011;4389;41.932;25.904;2023-01-04T11:05:53;23.10;;;18.60;;
8704;SDS011;4389;41.932;25.904;2023-01-04T11:08:27;21.40;;;18.10;;
8704;SDS011;4389;41.932;25.904;2023-01-04T11:10:59;23.03;;;18.50;;
8704;SDS011;4389;41.932;25.904;2023-01-04T11:13:31;19.97;;;17.77;;
8704;SDS011;4389;41.932;25.904;2023-01-04T11:15:59;21.60;;;18.63;;
8704;SDS011;4389;41.932;25.904;2023-01-04T11:18:30;31.33;;;18.97;;
8704;SDS011;4389;41.932;25.904;2023-01-04T11:21:01;35.37;;;19.97;;
8704;SDS011;4389;41.932;25.904;2023-01-04T11:23:31;21.53;;;19.07;;
8704;SDS011;4389;41.932;25.904;2023-01-04T11:25:59;23.67;;;18.63;;
8704;SDS011;4389;41.932;25.904;2023-01-04T11:28:35;27.87;;;18.77;;
8704;SDS011;4389;41.932;25.904;2023-01-04T11:31:11;26.97;;;17.87;;
8704;SDS011;4389;41.932;25.904;2023-01-04T11:33:52;22.87;;;17.67;;
8704;SDS011;4389;41.932;25.904;2023-01-04T11:39:05;28.93;;;19.47;;
8704;SDS011;4389;41.932;25.904;2023-01-04T11:41:45;36.03;;;20.50;;
8704;SDS011;4389;41.932;25.904;2023-01-04T11:44:19;23.37;;;18.90;;
8704;SDS011;4389;41.932;25.904;2023-01-04T11:46:48;26.03;;;20.30;;
8704;SDS011;4389;41.932;25.904;2023-01-04T11:49:34;33.83;;;20.53;;
8704;SDS011;4389;41.932;25.904;2023-01-04T11:52:04;30.98;;;20.15;;
8704;SDS011;4389;41.932;25.904;2023-01-04T11:54:32;27.23;;;19.50;;
8704;SDS011;4389;41.932;25.904;2023-01-04T11:57:00;35.03;;;21.33;;
8704;SDS011;4389;41.932;25.904;2023-01-04T11:59:30;26.03;;;20.63;;
8704;SDS011;4389;41.932;25.904;2023-01-04T12:02:09;26.27;;;20.27;;
8704;SDS011;4389;41.932;25.904;2023-01-04T12:04:45;27.43;;;20.43;;
8704;SDS011;4389;41.932;25.904;2023-01-04T12:07:15;22.73;;;19.30;;
8704;SDS011;4389;41.932;25.904;2023-01-04T12:09:51;23.07;;;19.57;;
8704;SDS011;4389;41.932;25.904;2023-01-04T12:12:18;26.40;;;20.10;;
8704;SDS011;4389;41.932;25.904;2023-01-04T12:14:46;35.80;;;20.70;;
8704;SDS011;4389;41.932;25.904;2023-01-04T12:17:15;25.87;;;19.77;;
8704;SDS011;4389;41.932;25.904;2023-01-04T12:19:48;24.90;;;18.97;;
8704;SDS011;4389;41.932;25.904;2023-01-04T12:22:20;29.43;;;19.47;;
8704;SDS011;4389;41.932;25.904;2023-01-04T12:24:51;29.97;;;20.47;;
8704;SDS011;4389;41.932;25.904;2023-01-04T12:27:19;23.13;;;19.37;;
8704;SDS011;4389;41.932;25.904;2023-01-04T12:29:56;24.63;;;19.37;;
8704;SDS011;4389;41.932;25.904;2023-01-04T12:47:47;28.33;;;18.87;;
8704;SDS011;4389;41.932;25.904;2023-01-04T12:53:59;35.03;;;20.03;;
8704;SDS011;4389;41.932;25.904;2023-01-04T12:59:33;30.93;;;18.43;;
8704;SDS011;4389;41.932;25.904;2023-01-04T13:02:13;20.67;;;16.47;;
8704;SDS011;4389;41.932;25.904;2023-01-04T13:04:42;27.43;;;18.67;;
8704;SDS011;4389;41.932;25.904;2023-01-04T13:07:12;26.37;;;16.13;;
8704;SDS011;4389;41.932;25.904;2023-01-04T13:09:47;23.87;;;17.20;;
8704;SDS011;4389;41.932;25.904;2023-01-04T13:12:20;25.73;;;16.80;;
8704;SDS011;4389;41.932;25.904;2023-01-04T13:15:10;20.37;;;16.67;;
8704;SDS011;4389;41.932;25.904;2023-01-04T13:17:45;32.53;;;18.07;;
8704;SDS011;4389;41.932;25.904;2023-01-04T13:20:14;31.70;;;18.43;;
8704;SDS011;4389;41.932;25.904;2023-01-04T13:22:45;29.13;;;18.63;;
8704;SDS011;4389;41.932;25.904;2023-01-04T13:25:18;39.37;;;19.53;;
8704;SDS011;4389;41.932;25.904;2023-01-04T13:30:32;41.60;;;22.57;;
8704;SDS011;4389;41.932;25.904;2023-01-04T13:33:06;38.30;;;20.00;;
8704;SDS011;4389;41.932;25.904;2023-01-04T13:35:35;25.13;;;16.87;;
8704;SDS011;4389;41.932;25.904;2023-01-04T13:38:02;46.87;;;18.00;;
8704;SDS011;4389;41.932;25.904;2023-01-04T13:40:31;27.50;;;15.67;;
8704;SDS011;4389;41.932;25.904;2023-01-04T13:43:10;27.07;;;17.00;;
8704;SDS011;4389;41.932;25.904;2023-01-04T13:45:55;26.13;;;16.93;;
8704;SDS011;4389;41.932;25.904;2023-01-04T13:48:34;26.10;;;15.60;;
8704;SDS011;4389;41.932;25.904;2023-01-04T13:51:03;20.63;;;14.47;;
8704;SDS011;4389;41.932;25.904;2023-01-04T13:53:38;20.30;;;13.27;;
8704;SDS011;4389;41.932;25.904;2023-01-04T13:56:15;17.73;;;14.07;;
8704;SDS011;4389;41.932;25.904;2023-01-04T13:58:44;16.43;;;12.83;;
8704;SDS011;4389;41.932;25.904;2023-01-04T14:01:12;35.23;;;16.40;;
8704;SDS011;4389;41.932;25.904;2023-01-04T14:03:43;20.50;;;14.73;;
8704;SDS011;4389;41.932;25.904;2023-01-04T14:06:14;30.30;;;15.63;;
8704;SDS011;4389;41.932;25.904;2023-01-04T14:08:47;44.03;;;20.43;;
8704;SDS011;4389;41.932;25.904;2023-01-04T14:11:19;57.70;;;23.30;;
8704;SDS011;4389;41.932;25.904;2023-01-04T14:17:07;31.10;;;16.03;;
8704;SDS011;4389;41.932;25.904;2023-01-04T14:19:42;20.37;;;13.13;;
8704;SDS011;4389;41.932;25.904;2023-01-04T14:28:25;24.10;;;15.23;;
8704;SDS011;4389;41.932;25.904;2023-01-04T14:34:03;67.60;;;17.27;;
8704;SDS011;4389;41.932;25.904;2023-01-04T14:36:31;36.33;;;19.00;;
8704;SDS011;4389;41.932;25.904;2023-01-04T14:41:56;61.57;;;24.77;;
8704;SDS011;4389;41.932;25.904;2023-01-04T14:44:26;80.40;;;23.30;;
8704;SDS011;4389;41.932;25.904;2023-01-04T14:46:56;33.80;;;16.43;;
8704;SDS011;4389;41.932;25.904;2023-01-04T14:49:24;30.73;;;17.97;;
8704;SDS011;4389;41.932;25.904;2023-01-04T14:51:53;66.10;;;27.40;;
8704;SDS011;4389;41.932;25.904;2023-01-04T14:54:22;63.87;;;26.13;;
8704;SDS011;4389;41.932;25.904;2023-01-04T14:56:50;44.33;;;20.83;;
8704;SDS011;4389;41.932;25.904;2023-01-04T14:59:17;40.57;;;20.27;;
8704;SDS011;4389;41.932;25.904;2023-01-04T15:01:49;54.00;;;23.67;;
8704;SDS011;4389;41.932;25.904;2023-01-04T15:04:15;42.17;;;22.47;;
8704;SDS011;4389;41.932;25.904;2023-01-04T15:06:46;41.80;;;28.10;;
8704;SDS011;4389;41.932;25.904;2023-01-04T15:09:15;45.27;;;29.77;;
8704;SDS011;4389;41.932;25.904;2023-01-04T15:11:41;53.47;;;30.27;;
8704;SDS011;4389;41.932;25.904;2023-01-04T15:14:08;58.53;;;41.63;;
8704;SDS011;4389;41.932;25.904;2023-01-04T15:16:35;65.67;;;42.90;;
8704;SDS011;4389;41.932;25.904;2023-01-04T15:19:03;54.67;;;34.40;;
8704;SDS011;4389;41.932;25.904;2023-01-04T15:21:30;57.87;;;39.90;;
8704;SDS011;4389;41.932;25.904;2023-01-04T15:23:57;54.33;;;36.20;;
8704;SDS011;4389;41.932;25.904;2023-01-04T15:26:24;74.27;;;37.50;;
8704;SDS011;4389;41.932;25.904;2023-01-04T15:28:50;105.87;;;55.87;;
8704;SDS011;4389;41.932;25.904;2023-01-04T15:31:17;91.17;;;57.23;;
8704;SDS011;4389;41.932;25.904;2023-01-04T15:33:45;161.20;;;113.23;;
8704;SDS011;4389;41.932;25.904;2023-01-04T15:36:14;231.20;;;135.57;;
8704;SDS011;4389;41.932;25.904;2023-01-04T15:38:43;149.90;;;103.47;;
8704;SDS011;4389;41.932;25.904;2023-01-04T15:41:11;216.90;;;139.60;;